sensor_id;sensor_type;location;lat;lon;timestamp;pressure;altitude;pressure_sealevel;temperature;humidity
62436;BME280;48480;50.252;18.848;2023-03-23T00:01:14;98212.73;;;11.15;64.65
62436;BME280;48480;50.252;18.848;2023-03-23T00:03:51;98214.35;;;11.14;64.63
62436;BME280;48480;50.252;18.848;2023-03-23T00:06:19;98209.99;;;11.12;64.63
62436;BME280;48480;50.252;18.848;2023-03-23T00:08:50;98209.20;;;11.11;64.70
62436;BME280;48480;50.252;18.848;2023-03-23T00:11:23;98205.55;;;11.10;64.86
62436;BME280;48480;50.252;18.848;2023-03-23T00:13:52;98203.83;;;11.09;64.91
62436;BME280;48480;50.252;18.848;2023-03-23T00:16:22;98201.98;;;11.07;64.81
62436;BME280;48480;50.252;18.848;2023-03-23T00:18:55;98202.50;;;11.03;64.91
62436;BME280;48480;50.252;18.848;2023-03-23T00:21:26;98206.22;;;10.97;65.01
62436;BME280;48480;50.252;18.848;2023-03-23T00:24:00;98203.34;;;10.92;65.10
62436;BME280;48480;50.252;18.848;2023-03-23T00:26:26;98199.54;;;10.87;65.29
62436;BME280;48480;50.252;18.848;2023-03-23T00:28:54;98201.17;;;10.84;65.27
62436;BME280;48480;50.252;18.848;2023-03-23T00:31:20;98200.23;;;10.82;65.44
62436;BME280;48480;50.252;18.848;2023-03-23T00:33:45;98201.12;;;10.79;65.42
62436;BME280;48480;50.252;18.848;2023-03-23T00:36:12;98200.41;;;10.77;65.57
62436;BME280;48480;50.252;18.848;2023-03-23T00:38:39;98202.98;;;10.74;65.52
62436;BME280;48480;50.252;18.848;2023-03-23T00:41:06;98176.70;;;10.56;65.57
62436;BME280;48480;50.252;18.848;2023-03-23T00:43:32;98204.00;;;10.70;65.68
62436;BME280;48480;50.252;18.848;2023-03-23T00:46:01;98206.11;;;10.70;65.68
62436;BME280;48480;50.252;18.848;2023-03-23T00:48:29;98201.73;;;10.69;65.77
62436;BME280;48480;50.252;18.848;2023-03-23T00:51:13;98199.56;;;10.67;65.70
62436;BME280;48480;50.252;18.848;2023-03-23T00:53:57;98193.23;;;10.66;65.87
62436;BME280;48480;50.252;18.848;2023-03-23T00:56:41;98189.70;;;10.64;65.89
62436;BME280;48480;50.252;18.848;2023-03-23T00:59:25;98186.64;;;10.62;66.03
62436;BME280;48480;50.252;18.848;2023-03-23T01:01:51;98182.77;;;10.59;66.07
62436;BME280;48480;50.252;18.848;2023-03-23T01:04:16;98179.06;;;10.57;66.06
62436;BME280;48480;50.252;18.848;2023-03-23T01:06:43;98177.19;;;10.55;66.13
62436;BME280;48480;50.252;18.848;2023-03-23T01:09:12;98175.88;;;10.56;66.19
62436;BME280;48480;50.252;18.848;2023-03-23T01:11:48;98169.67;;;10.55;66.22
62436;BME280;48480;50.252;18.848;2023-03-23T01:14:16;98172.04;;;10.53;66.26
62436;BME280;48480;50.252;18.848;2023-03-23T01:16:42;98168.02;;;10.54;66.30
62436;BME280;48480;50.252;18.848;2023-03-23T01:19:07;98169.67;;;10.53;66.35
62436;BME280;48480;50.252;18.848;2023-03-23T01:21:33;98170.44;;;10.51;66.28
62436;BME280;48480;50.252;18.848;2023-03-23T01:23:58;98172.11;;;10.51;66.34
62436;BME280;48480;50.252;18.848;2023-03-23T01:26:43;98170.89;;;10.51;66.36
62436;BME280;48480;50.252;18.848;2023-03-23T01:29:27;98172.38;;;10.50;66.35
62436;BME280;48480;50.252;18.848;2023-03-23T01:32:11;98171.75;;;10.48;66.38
62436;BME280;48480;50.252;18.848;2023-03-23T01:34:55;98171.76;;;10.46;66.41
62436;BME280;48480;50.252;18.848;2023-03-23T01:37:39;98169.17;;;10.46;66.51
62436;BME280;48480;50.252;18.848;2023-03-23T01:40:26;98169.65;;;10.45;66.52
62436;BME280;48480;50.252;18.848;2023-03-23T01:43:13;98172.52;;;10.44;66.54
62436;BME280;48480;50.252;18.848;2023-03-23T01:45:40;98171.43;;;10.41;66.61
62436;BME280;48480;50.252;18.848;2023-03-23T01:50:55;98165.79;;;10.38;66.68
62436;BME280;48480;50.252;18.848;2023-03-23T01:53:46;98164.70;;;10.38;66.81
62436;BME280;48480;50.252;18.848;2023-03-23T01:56:41;98158.31;;;10.38;66.85
62436;BME280;48480;50.252;18.848;2023-03-23T01:59:29;98156.39;;;10.39;66.80
62436;BME280;48480;50.252;18.848;2023-03-23T02:02:14;98152.93;;;10.39;66.82
62436;BME280;48480;50.252;18.848;2023-03-23T02:05:02;98152.73;;;10.40;66.82
62436;BME280;48480;50.252;18.848;2023-03-23T02:07:51;98153.20;;;10.40;66.85
62436;BME280;48480;50.252;18.848;2023-03-23T02:10:17;98147.05;;;10.39;66.89
62436;BME280;48480;50.252;18.848;2023-03-23T02:12:43;98152.85;;;10.41;66.90
62436;BME280;48480;50.252;18.848;2023-03-23T02:15:08;98147.77;;;10.40;66.89
62436;BME280;48480;50.252;18.848;2023-03-23T02:17:46;98150.29;;;10.42;66.95
62436;BME280;48480;50.252;18.848;2023-03-23T02:28:46;98143.83;;;10.39;67.05
62436;BME280;48480;50.252;18.848;2023-03-23T02:31:30;98140.49;;;10.38;67.04
62436;BME280;48480;50.252;18.848;2023-03-23T02:34:25;98138.38;;;10.39;66.99
62436;BME280;48480;50.252;18.848;2023-03-23T02:37:03;98135.64;;;10.39;67.02
62436;BME280;48480;50.252;18.848;2023-03-23T02:39:47;98134.84;;;10.39;66.95
62436;BME280;48480;50.252;18.848;2023-03-23T02:42:17;98128.23;;;10.38;67.07
62436;BME280;48480;50.252;18.848;2023-03-23T02:44:47;98127.80;;;10.37;67.09
62436;BME280;48480;50.252;18.848;2023-03-23T02:47:22;98126.24;;;10.36;67.05
62436;BME280;48480;50.252;18.848;2023-03-23T02:49:51;98126.52;;;10.36;67.05
62436;BME280;48480;50.252;18.848;2023-03-23T02:52:21;98128.84;;;10.36;67.10
62436;BME280;48480;50.252;18.848;2023-03-23T02:54:49;98125.70;;;10.36;67.13
62436;BME280;48480;50.252;18.848;2023-03-23T02:57:16;98130.70;;;10.36;67.08
62436;BME280;48480;50.252;18.848;2023-03-23T02:59:42;98126.91;;;10.36;67.13
62436;BME280;48480;50.252;18.848;2023-03-23T03:02:14;98128.24;;;10.39;66.99
62436;BME280;48480;50.252;18.848;2023-03-23T03:04:52;98126.86;;;10.40;67.06
62436;BME280;48480;50.252;18.848;2023-03-23T03:07:30;98124.48;;;10.42;66.96
62436;BME280;48480;50.252;18.848;2023-03-23T03:10:12;98120.54;;;10.43;66.96
62436;BME280;48480;50.252;18.848;2023-03-23T03:13:14;98118.83;;;10.44;66.95
62436;BME280;48480;50.252;18.848;2023-03-23T03:15:53;98119.77;;;10.45;66.95
62436;BME280;48480;50.252;18.848;2023-03-23T03:20:50;98116.77;;;10.45;66.89
62436;BME280;48480;50.252;18.848;2023-03-23T03:23:18;98114.51;;;10.45;66.91
62436;BME280;48480;50.252;18.848;2023-03-23T03:25:46;98115.46;;;10.42;66.92
62436;BME280;48480;50.252;18.848;2023-03-23T03:28:17;98112.00;;;10.42;66.94
62436;BME280;48480;50.252;18.848;2023-03-23T03:30:49;98108.19;;;10.40;66.94
62436;BME280;48480;50.252;18.848;2023-03-23T03:33:17;98111.85;;;10.40;66.90
62436;BME280;48480;50.252;18.848;2023-03-23T03:35:43;98107.43;;;10.39;66.97
62436;BME280;48480;50.252;18.848;2023-03-23T03:38:11;98109.01;;;10.38;67.10
62436;BME280;48480;50.252;18.848;2023-03-23T03:40:36;98108.80;;;10.39;67.10
62436;BME280;48480;50.252;18.848;2023-03-23T03:43:03;98106.61;;;10.38;67.12
62436;BME280;48480;50.252;18.848;2023-03-23T03:45:31;98114.30;;;10.39;67.07
62436;BME280;48480;50.252;18.848;2023-03-23T03:47:56;98120.39;;;10.39;67.06
62436;BME280;48480;50.252;18.848;2023-03-23T03:50:22;98117.80;;;10.40;67.06
62436;BME280;48480;50.252;18.848;2023-03-23T03:52:48;98118.69;;;10.41;67.06
62436;BME280;48480;50.252;18.848;2023-03-23T03:55:14;98112.94;;;10.41;67.03
62436;BME280;48480;50.252;18.848;2023-03-23T03:57:40;98112.39;;;10.40;67.01
62436;BME280;48480;50.252;18.848;2023-03-23T04:00:09;98111.19;;;10.39;66.92
62436;BME280;48480;50.252;18.848;2023-03-23T04:02:45;98112.92;;;10.37;67.05
62436;BME280;48480;50.252;18.848;2023-03-23T04:05:17;98112.42;;;10.36;67.06
62436;BME280;48480;50.252;18.848;2023-03-23T04:07:44;98117.23;;;10.35;67.08
62436;BME280;48480;50.252;18.848;2023-03-23T04:10:11;98117.27;;;10.34;67.18
62436;BME280;48480;50.252;18.848;2023-03-23T04:12:38;98113.35;;;10.34;67.17
62436;BME280;48480;50.252;18.848;2023-03-23T04:15:04;98117.14;;;10.33;67.18
62436;BME280;48480;50.252;18.848;2023-03-23T04:17:30;98109.11;;;10.26;67.22
62436;BME280;48480;50.252;18.848;2023-03-23T04:19:56;98111.10;;;10.30;67.44
62436;BME280;48480;50.252;18.848;2023-03-23T04:22:23;98109.69;;;10.29;67.29
62436;BME280;48480;50.252;18.848;2023-03-23T04:25:01;98099.49;;;10.21;67.30
62436;BME280;48480;50.252;18.848;2023-03-23T04:27:32;98112.06;;;10.23;67.34
62436;BME280;48480;50.252;18.848;2023-03-23T04:29:58;98108.15;;;10.19;67.27
62436;BME280;48480;50.252;18.848;2023-03-23T04:32:27;98107.52;;;10.15;67.40
62436;BME280;48480;50.252;18.848;2023-03-23T04:34:58;98105.60;;;10.11;67.50
62436;BME280;48480;50.252;18.848;2023-03-23T04:37:27;98103.41;;;10.08;67.66
62436;BME280;48480;50.252;18.848;2023-03-23T04:39:59;98097.79;;;10.05;67.57
62436;BME280;48480;50.252;18.848;2023-03-23T04:42:31;98101.63;;;10.04;67.55
62436;BME280;48480;50.252;18.848;2023-03-23T04:44:58;98104.20;;;10.03;67.52
62436;BME280;48480;50.252;18.848;2023-03-23T04:47:25;98106.04;;;10.03;67.40
62436;BME280;48480;50.252;18.848;2023-03-23T04:49:58;98114.00;;;10.05;67.36
62436;BME280;48480;50.252;18.848;2023-03-23T04:52:27;98113.98;;;10.05;67.35
62436;BME280;48480;50.252;18.848;2023-03-23T04:54:54;98113.10;;;10.05;67.39
62436;BME280;48480;50.252;18.848;2023-03-23T04:57:32;98110.42;;;10.06;67.37
62436;BME280;48480;50.252;18.848;2023-03-23T05:00:06;98109.61;;;10.03;67.48
62436;BME280;48480;50.252;18.848;2023-03-23T05:02:38;98114.55;;;10.02;67.60
62436;BME280;48480;50.252;18.848;2023-03-23T05:05:07;98117.38;;;10.01;67.66
62436;BME280;48480;50.252;18.848;2023-03-23T05:07:37;98109.02;;;10.01;67.67
62436;BME280;48480;50.252;18.848;2023-03-23T05:10:04;98110.88;;;10.02;67.65
62436;BME280;48480;50.252;18.848;2023-03-23T05:12:30;98105.48;;;10.03;67.64
62436;BME280;48480;50.252;18.848;2023-03-23T05:14:56;98102.52;;;10.03;67.51
62436;BME280;48480;50.252;18.848;2023-03-23T05:17:21;98099.41;;;10.04;67.36
62436;BME280;48480;50.252;18.848;2023-03-23T05:19:52;98100.05;;;10.05;67.38
62436;BME280;48480;50.252;18.848;2023-03-23T05:22:21;98107.01;;;10.08;67.37
62436;BME280;48480;50.252;18.848;2023-03-23T05:24:52;98114.79;;;10.11;67.18
62436;BME280;48480;50.252;18.848;2023-03-23T05:27:18;98110.27;;;10.15;67.23
62436;BME280;48480;50.252;18.848;2023-03-23T05:29:45;98108.26;;;10.20;67.18
62436;BME280;48480;50.252;18.848;2023-03-23T05:32:15;98103.67;;;10.24;67.05
62436;BME280;48480;50.252;18.848;2023-03-23T05:34:42;98103.69;;;10.29;66.97
62436;BME280;48480;50.252;18.848;2023-03-23T05:37:09;98099.55;;;10.30;66.74
62436;BME280;48480;50.252;18.848;2023-03-23T05:39:36;98101.06;;;10.39;66.66
62436;BME280;48480;50.252;18.848;2023-03-23T05:42:02;98098.33;;;10.45;66.50
62436;BME280;48480;50.252;18.848;2023-03-23T05:44:28;98101.60;;;10.52;66.34
62436;BME280;48480;50.252;18.848;2023-03-23T05:46:54;98112.60;;;10.60;66.24
62436;BME280;48480;50.252;18.848;2023-03-23T05:49:20;98119.30;;;10.66;66.08
62436;BME280;48480;50.252;18.848;2023-03-23T05:51:46;98120.86;;;10.73;65.97
62436;BME280;48480;50.252;18.848;2023-03-23T05:54:13;98122.38;;;10.80;65.77
62436;BME280;48480;50.252;18.848;2023-03-23T05:56:40;98127.40;;;10.87;65.59
62436;BME280;48480;50.252;18.848;2023-03-23T05:59:06;98133.21;;;10.95;65.44
62436;BME280;48480;50.252;18.848;2023-03-23T06:01:33;98130.44;;;11.01;65.41
62436;BME280;48480;50.252;18.848;2023-03-23T06:03:59;98126.75;;;11.07;65.21
62436;BME280;48480;50.252;18.848;2023-03-23T06:06:29;98122.67;;;11.11;64.95
62436;BME280;48480;50.252;18.848;2023-03-23T06:08:56;98118.73;;;11.16;64.72
62436;BME280;48480;50.252;18.848;2023-03-23T06:11:23;98117.02;;;11.22;64.59
62436;BME280;48480;50.252;18.848;2023-03-23T06:13:50;98111.96;;;11.26;64.36
62436;BME280;48480;50.252;18.848;2023-03-23T06:16:15;98110.84;;;11.33;64.29
62436;BME280;48480;50.252;18.848;2023-03-23T06:18:41;98109.48;;;11.40;64.07
62436;BME280;48480;50.252;18.848;2023-03-23T06:21:09;98108.36;;;11.45;63.86
62436;BME280;48480;50.252;18.848;2023-03-23T06:23:36;98108.84;;;11.50;63.71
62436;BME280;48480;50.252;18.848;2023-03-23T06:26:13;98106.88;;;11.53;63.70
62436;BME280;48480;50.252;18.848;2023-03-23T06:28:42;98080.33;;;11.36;63.42
62436;BME280;48480;50.252;18.848;2023-03-23T06:31:10;98110.09;;;11.57;63.35
62436;BME280;48480;50.252;18.848;2023-03-23T06:33:37;98112.15;;;11.59;63.20
62436;BME280;48480;50.252;18.848;2023-03-23T06:36:14;98108.24;;;11.62;63.09
62436;BME280;48480;50.252;18.848;2023-03-23T06:38:40;98106.47;;;11.59;63.02
62436;BME280;48480;50.252;18.848;2023-03-23T06:41:16;98112.64;;;11.67;62.77
62436;BME280;48480;50.252;18.848;2023-03-23T06:43:41;98110.27;;;11.70;62.63
62436;BME280;48480;50.252;18.848;2023-03-23T06:46:14;98111.25;;;11.73;62.54
62436;BME280;48480;50.252;18.848;2023-03-23T06:48:40;98095.33;;;11.65;62.49
62436;BME280;48480;50.252;18.848;2023-03-23T06:51:11;98113.71;;;11.82;62.48
62436;BME280;48480;50.252;18.848;2023-03-23T06:53:45;98116.02;;;11.91;62.09
62436;BME280;48480;50.252;18.848;2023-03-23T06:56:13;98112.81;;;11.96;61.95
62436;BME280;48480;50.252;18.848;2023-03-23T06:58:39;98105.43;;;11.97;61.79
62436;BME280;48480;50.252;18.848;2023-03-23T07:01:08;98109.64;;;12.09;61.58
62436;BME280;48480;50.252;18.848;2023-03-23T07:03:35;98118.19;;;12.14;61.41
62436;BME280;48480;50.252;18.848;2023-03-23T07:06:02;98112.29;;;12.17;61.07
62436;BME280;48480;50.252;18.848;2023-03-23T07:08:28;98113.48;;;12.21;61.25
62436;BME280;48480;50.252;18.848;2023-03-23T07:10:56;98118.30;;;12.25;61.08
62436;BME280;48480;50.252;18.848;2023-03-23T07:13:22;98121.02;;;12.30;60.98
62436;BME280;48480;50.252;18.848;2023-03-23T07:15:49;98123.41;;;12.33;60.75
62436;BME280;48480;50.252;18.848;2023-03-23T07:18:16;98125.95;;;12.37;60.60
62436;BME280;48480;50.252;18.848;2023-03-23T07:20:41;98125.75;;;12.41;60.52
62436;BME280;48480;50.252;18.848;2023-03-23T07:23:07;98130.89;;;12.45;60.36
62436;BME280;48480;50.252;18.848;2023-03-23T07:25:34;98134.70;;;12.49;60.25
62436;BME280;48480;50.252;18.848;2023-03-23T07:28:00;98139.00;;;12.54;60.08
62436;BME280;48480;50.252;18.848;2023-03-23T07:30:26;98135.90;;;12.58;59.95
62436;BME280;48480;50.252;18.848;2023-03-23T07:32:54;98136.44;;;12.63;59.88
62436;BME280;48480;50.252;18.848;2023-03-23T07:35:20;98138.55;;;12.69;59.79
62436;BME280;48480;50.252;18.848;2023-03-23T07:37:45;98141.30;;;12.76;59.53
62436;BME280;48480;50.252;18.848;2023-03-23T07:40:15;98143.32;;;12.81;59.35
62436;BME280;48480;50.252;18.848;2023-03-23T07:42:42;98142.68;;;12.86;59.22
62436;BME280;48480;50.252;18.848;2023-03-23T07:45:10;98144.54;;;12.92;59.06
62436;BME280;48480;50.252;18.848;2023-03-23T07:47:37;98143.84;;;12.96;58.98
62436;BME280;48480;50.252;18.848;2023-03-23T07:50:04;98141.95;;;13.05;58.91
62436;BME280;48480;50.252;18.848;2023-03-23T07:52:29;98142.13;;;13.14;58.64
62436;BME280;48480;50.252;18.848;2023-03-23T07:54:56;98142.37;;;13.25;58.37
62436;BME280;48480;50.252;18.848;2023-03-23T07:57:24;98142.67;;;13.39;58.23
62436;BME280;48480;50.252;18.848;2023-03-23T07:59:49;98144.10;;;13.52;57.93
62436;BME280;48480;50.252;18.848;2023-03-23T08:02:15;98147.99;;;13.70;57.69
62436;BME280;48480;50.252;18.848;2023-03-23T08:04:40;98120.68;;;13.86;57.02
62436;BME280;48480;50.252;18.848;2023-03-23T08:07:08;98102.70;;;14.39;56.05
62436;BME280;48480;50.252;18.848;2023-03-23T08:09:37;98131.66;;;15.37;54.62
62436;BME280;48480;50.252;18.848;2023-03-23T08:12:04;98131.46;;;16.20;52.70
62436;BME280;48480;50.252;18.848;2023-03-23T08:14:30;98127.89;;;16.86;50.70
62436;BME280;48480;50.252;18.848;2023-03-23T08:16:56;98129.55;;;17.46;49.41
62436;BME280;48480;50.252;18.848;2023-03-23T08:19:22;98133.09;;;17.95;48.21
62436;BME280;48480;50.252;18.848;2023-03-23T08:21:49;98136.39;;;18.15;47.25
62436;BME280;48480;50.252;18.848;2023-03-23T08:24:15;98130.74;;;18.37;46.50
62436;BME280;48480;50.252;18.848;2023-03-23T08:26:44;98135.00;;;18.72;45.33
62436;BME280;48480;50.252;18.848;2023-03-23T08:29:10;98115.20;;;18.79;45.10
62436;BME280;48480;50.252;18.848;2023-03-23T08:31:38;98126.15;;;18.91;44.21
62436;BME280;48480;50.252;18.848;2023-03-23T08:34:05;98125.02;;;18.77;43.79
62436;BME280;48480;50.252;18.848;2023-03-23T08:36:32;98126.61;;;18.43;43.75
62436;BME280;48480;50.252;18.848;2023-03-23T08:38:58;98132.85;;;18.11;44.09
62436;BME280;48480;50.252;18.848;2023-03-23T08:41:25;98129.77;;;17.99;44.52
62436;BME280;48480;50.252;18.848;2023-03-23T08:43:52;98124.45;;;18.01;44.44
62436;BME280;48480;50.252;18.848;2023-03-23T08:46:19;98124.20;;;18.13;44.48
62436;BME280;48480;50.252;18.848;2023-03-23T08:48:45;98119.42;;;18.47;44.11
62436;BME280;48480;50.252;18.848;2023-03-23T08:51:11;98112.95;;;18.94;43.61
62436;BME280;48480;50.252;18.848;2023-03-23T08:53:37;98111.05;;;19.29;42.71
62436;BME280;48480;50.252;18.848;2023-03-23T08:56:07;98107.86;;;19.30;42.68
62436;BME280;48480;50.252;18.848;2023-03-23T08:58:36;98104.77;;;19.32;42.29
62436;BME280;48480;50.252;18.848;2023-03-23T09:01:03;98106.45;;;19.42;42.17
62436;BME280;48480;50.252;18.848;2023-03-23T09:03:30;98102.34;;;19.66;41.25
62436;BME280;48480;50.252;18.848;2023-03-23T09:06:00;98108.02;;;19.95;40.90
62436;BME280;48480;50.252;18.848;2023-03-23T09:08:28;98108.83;;;20.30;40.49
62436;BME280;48480;50.252;18.848;2023-03-23T09:10:59;98105.35;;;20.63;39.58
62436;BME280;48480;50.252;18.848;2023-03-23T09:13:24;98104.66;;;21.00;38.98
62436;BME280;48480;50.252;18.848;2023-03-23T09:15:50;98104.04;;;21.29;38.25
62436;BME280;48480;50.252;18.848;2023-03-23T09:18:17;98107.26;;;21.21;37.67
62436;BME280;48480;50.252;18.848;2023-03-23T09:20:44;98111.07;;;20.97;37.83
62436;BME280;48480;50.252;18.848;2023-03-23T09:23:10;98105.48;;;20.90;37.88
62436;BME280;48480;50.252;18.848;2023-03-23T09:25:35;98105.95;;;20.85;38.21
62436;BME280;48480;50.252;18.848;2023-03-23T09:28:01;98107.83;;;20.80;38.60
62436;BME280;48480;50.252;18.848;2023-03-23T09:30:30;98111.81;;;20.72;38.53
62436;BME280;48480;50.252;18.848;2023-03-23T09:32:57;98116.02;;;20.68;38.53
62436;BME280;48480;50.252;18.848;2023-03-23T09:35:23;98114.61;;;20.75;38.72
62436;BME280;48480;50.252;18.848;2023-03-23T09:37:51;98115.50;;;20.99;38.47
62436;BME280;48480;50.252;18.848;2023-03-23T09:40:25;98118.78;;;21.27;37.88
62436;BME280;48480;50.252;18.848;2023-03-23T09:48:33;98114.98;;;21.79;35.29
62436;BME280;48480;50.252;18.848;2023-03-23T09:53:55;98097.21;;;21.78;34.70
62436;BME280;48480;50.252;18.848;2023-03-23T09:56:30;98088.88;;;21.91;35.25
62436;BME280;48480;50.252;18.848;2023-03-23T09:59:02;98094.02;;;22.03;34.72
62436;BME280;48480;50.252;18.848;2023-03-23T10:01:42;98095.61;;;21.96;33.92
62436;BME280;48480;50.252;18.848;2023-03-23T10:06:59;98094.52;;;21.56;33.80
62436;BME280;48480;50.252;18.848;2023-03-23T10:09:29;98089.86;;;21.53;34.01
62436;BME280;48480;50.252;18.848;2023-03-23T10:18:07;98075.07;;;21.26;34.63
62436;BME280;48480;50.252;18.848;2023-03-23T10:25:51;98075.45;;;21.49;33.95
62436;BME280;48480;50.252;18.848;2023-03-23T10:28:21;98069.76;;;21.29;33.44
62436;BME280;48480;50.252;18.848;2023-03-23T10:30:55;98050.89;;;20.85;33.08
62436;BME280;48480;50.252;18.848;2023-03-23T10:33:41;98056.77;;;20.44;33.68
62436;BME280;48480;50.252;18.848;2023-03-23T10:36:30;98072.41;;;19.96;34.28
62436;BME280;48480;50.252;18.848;2023-03-23T10:39:18;98067.36;;;19.44;35.04
62436;BME280;48480;50.252;18.848;2023-03-23T10:41:46;98065.80;;;19.04;36.01
62436;BME280;48480;50.252;18.848;2023-03-23T10:44:24;98069.99;;;18.78;36.60
62436;BME280;48480;50.252;18.848;2023-03-23T10:47:06;98078.27;;;18.52;37.02
62436;BME280;48480;50.252;18.848;2023-03-23T10:49:34;98078.67;;;18.23;37.57
62436;BME280;48480;50.252;18.848;2023-03-23T10:55:16;98082.33;;;17.76;38.69
62436;BME280;48480;50.252;18.848;2023-03-23T10:57:58;98075.96;;;17.53;39.45
62436;BME280;48480;50.252;18.848;2023-03-23T11:00:28;98079.31;;;17.41;39.74
62436;BME280;48480;50.252;18.848;2023-03-23T11:05:37;98080.59;;;17.32;40.60
62436;BME280;48480;50.252;18.848;2023-03-23T11:08:12;98085.27;;;17.28;40.75
62436;BME280;48480;50.252;18.848;2023-03-23T11:13:42;98084.27;;;17.11;41.29
62436;BME280;48480;50.252;18.848;2023-03-23T11:16:10;98086.02;;;17.03;41.54
62436;BME280;48480;50.252;18.848;2023-03-23T11:18:41;98080.35;;;16.95;41.68
62436;BME280;48480;50.252;18.848;2023-03-23T11:21:12;98076.94;;;16.88;41.76
62436;BME280;48480;50.252;18.848;2023-03-23T11:23:42;98078.62;;;16.82;41.91
62436;BME280;48480;50.252;18.848;2023-03-23T11:26:11;98074.21;;;16.79;41.95
62436;BME280;48480;50.252;18.848;2023-03-23T11:31:22;98072.13;;;16.73;42.59
62436;BME280;48480;50.252;18.848;2023-03-23T11:33:57;98071.61;;;16.70;42.59
62436;BME280;48480;50.252;18.848;2023-03-23T11:36:34;98072.43;;;16.68;42.79
62436;BME280;48480;50.252;18.848;2023-03-23T11:39:01;98074.89;;;16.66;42.71
62436;BME280;48480;50.252;18.848;2023-03-23T11:41:34;98075.75;;;16.67;42.97
62436;BME280;48480;50.252;18.848;2023-03-23T11:44:09;98072.07;;;16.69;43.12
62436;BME280;48480;50.252;18.848;2023-03-23T11:49:29;98075.05;;;16.78;43.34
62436;BME280;48480;50.252;18.848;2023-03-23T11:52:13;98063.89;;;16.80;42.89
62436;BME280;48480;50.252;18.848;2023-03-23T11:54:57;98071.46;;;16.84;42.95
62436;BME280;48480;50.252;18.848;2023-03-23T11:57:27;98070.98;;;16.89;42.96
62436;BME280;48480;50.252;18.848;2023-03-23T12:00:18;98064.73;;;16.95;43.08
62436;BME280;48480;50.252;18.848;2023-03-23T12:03:07;98057.88;;;16.99;42.74
62436;BME280;48480;50.252;18.848;2023-03-23T12:08:26;98062.73;;;17.09;42.60
62436;BME280;48480;50.252;18.848;2023-03-23T12:22:40;98002.99;;;16.99;42.61
62436;BME280;48480;50.252;18.848;2023-03-23T12:25:30;98060.63;;;17.47;42.71
62436;BME280;48480;50.252;18.848;2023-03-23T12:31:15;98060.98;;;17.58;42.67
62436;BME280;48480;50.252;18.848;2023-03-23T12:37:03;98056.92;;;17.64;43.04
62436;BME280;48480;50.252;18.848;2023-03-23T12:48:26;98052.83;;;17.57;42.75
62436;BME280;48480;50.252;18.848;2023-03-23T12:53:33;98062.79;;;17.46;42.48
62436;BME280;48480;50.252;18.848;2023-03-23T12:56:20;98058.86;;;17.42;42.65
62436;BME280;48480;50.252;18.848;2023-03-23T12:59:03;98061.51;;;17.42;42.99
62436;BME280;48480;50.252;18.848;2023-03-23T13:04:20;98057.10;;;17.43;42.76
62436;BME280;48480;50.252;18.848;2023-03-23T13:06:48;98059.63;;;17.42;42.63
62436;BME280;48480;50.252;18.848;2023-03-23T13:09:38;98059.91;;;17.38;42.65
62436;BME280;48480;50.252;18.848;2023-03-23T13:12:14;98059.01;;;17.41;42.66
62436;BME280;48480;50.252;18.848;2023-03-23T13:18:02;98044.69;;;17.58;42.69
62436;BME280;48480;50.252;18.848;2023-03-23T13:20:41;98042.70;;;17.66;42.26
62436;BME280;48480;50.252;18.848;2023-03-23T13:23:38;98039.40;;;17.70;42.15
62436;BME280;48480;50.252;18.848;2023-03-23T13:26:20;98031.66;;;17.72;42.12
62436;BME280;48480;50.252;18.848;2023-03-23T13:29:12;98024.88;;;17.76;42.05
62436;BME280;48480;50.252;18.848;2023-03-23T13:31:42;98018.64;;;17.80;41.90
62436;BME280;48480;50.252;18.848;2023-03-23T13:34:22;98017.35;;;17.81;41.41
62436;BME280;48480;50.252;18.848;2023-03-23T13:37:04;98012.99;;;17.87;41.33
62436;BME280;48480;50.252;18.848;2023-03-23T13:39:54;97977.73;;;17.67;41.34
62436;BME280;48480;50.252;18.848;2023-03-23T13:42:32;98007.37;;;17.89;41.10
62436;BME280;48480;50.252;18.848;2023-03-23T13:53:25;98002.73;;;17.92;41.26
62436;BME280;48480;50.252;18.848;2023-03-23T14:01:45;98009.14;;;17.88;41.16
62436;BME280;48480;50.252;18.848;2023-03-23T14:04:15;98005.02;;;17.88;41.11
62436;BME280;48480;50.252;18.848;2023-03-23T14:06:51;98004.02;;;17.87;41.19
62436;BME280;48480;50.252;18.848;2023-03-23T14:11:57;98014.60;;;17.85;41.24
62436;BME280;48480;50.252;18.848;2023-03-23T14:14:50;97987.40;;;17.69;41.44
62436;BME280;48480;50.252;18.848;2023-03-23T14:17:25;98012.67;;;17.81;41.48
62436;BME280;48480;50.252;18.848;2023-03-23T14:19:54;98013.34;;;17.78;41.39
62436;BME280;48480;50.252;18.848;2023-03-23T14:22:35;97970.79;;;17.50;41.10
62436;BME280;48480;50.252;18.848;2023-03-23T14:27:43;98007.55;;;17.79;41.84
62436;BME280;48480;50.252;18.848;2023-03-23T14:30:17;98004.28;;;17.84;41.75
62436;BME280;48480;50.252;18.848;2023-03-23T14:32:44;97986.52;;;17.81;41.91
62436;BME280;48480;50.252;18.848;2023-03-23T14:35:37;98005.16;;;18.05;42.00
62436;BME280;48480;50.252;18.848;2023-03-23T14:38:14;98001.67;;;18.15;41.73
62436;BME280;48480;50.252;18.848;2023-03-23T14:40:50;97994.59;;;18.22;41.63
62436;BME280;48480;50.252;18.848;2023-03-23T14:43:23;97991.83;;;18.25;41.52
62436;BME280;48480;50.252;18.848;2023-03-23T14:45:54;97994.63;;;18.28;41.41
62436;BME280;48480;50.252;18.848;2023-03-23T14:48:28;97994.63;;;18.29;41.15
62436;BME280;48480;50.252;18.848;2023-03-23T14:51:14;97997.42;;;18.30;41.17
62436;BME280;48480;50.252;18.848;2023-03-23T14:53:40;97996.71;;;18.27;41.21
62436;BME280;48480;50.252;18.848;2023-03-23T14:56:19;97993.27;;;18.22;41.24
62436;BME280;48480;50.252;18.848;2023-03-23T14:58:46;97999.54;;;18.21;41.46
62436;BME280;48480;50.252;18.848;2023-03-23T15:01:30;97998.35;;;18.17;41.72